Terminal Aerodrome Forecast
Issued by NWS Duluth, MN

Home | Current Version | Previous Version | Text Only | Print | Product List | Glossary On
Versions: 1 2 3 4 5 6 7 8 9 10 11 12 13 14 15 16 17 18 19 20 21 22 23 24 25
163
FTUS43 KDLH 230416 AAC
TAFDLH
TAF AMD
KDLH 230416Z 2304/2324 13007KT 5SM BR SCT003
      TEMPO 2304/2308 3/4SM BR BKN003
     FM230800 33004KT 5SM BR SCT003 SCT090
      TEMPO 2308/2312 1SM BR BKN003
     FM231200 34005KT 6SM BR SCT005 BKN010
     FM231700 03008KT P6SM SCT010 BKN035
     FM232000 08008KT P6SM SCT010 SCT035=

USA.gov is the U.S. government's official web portal to all federal, state and local government web resources and services.